createdAt,value
2022-10-21T00:02:10.773Z,98770.94
2022-10-21T00:04:37.909Z,98773.44
2022-10-21T00:07:04.910Z,98764.03
2022-10-21T00:09:31.863Z,98762.53
2022-10-21T00:11:58.736Z,98761.72
2022-10-21T00:14:25.728Z,98757.22
2022-10-21T00:16:52.869Z,98754.94
2022-10-21T00:19:19.972Z,98755.38
2022-10-21T00:21:46.752Z,98764.00
2022-10-21T00:24:13.603Z,98769.56
2022-10-21T00:26:40.951Z,98761.63
2022-10-21T00:29:07.832Z,98759.31
2022-10-21T00:31:35.078Z,98757.66
2022-10-21T00:34:01.846Z,98752.41
2022-10-21T00:36:28.949Z,98737.06
2022-10-21T00:38:57.211Z,98752.09
2022-10-21T00:41:24.734Z,98750.78
2022-10-21T00:44:12.235Z,98736.31
2022-10-21T00:46:58.030Z,98729.00
2022-10-21T00:49:38.116Z,98735.59
2022-10-21T00:52:08.216Z,98735.00
2022-10-21T00:54:36.314Z,98722.16
2022-10-21T00:57:03.793Z,98716.69
2022-10-21T00:59:34.599Z,98734.28
2022-10-21T01:02:01.642Z,98731.94
2022-10-21T01:04:28.834Z,98727.66
2022-10-21T01:06:56.546Z,98728.63
2022-10-21T01:09:23.656Z,98721.03
2022-10-21T01:11:50.835Z,98720.69
2022-10-21T01:14:56.793Z,98722.50
2022-10-21T01:17:48.886Z,98709.16
2022-10-21T01:20:22.640Z,98707.38
2022-10-21T01:23:14.261Z,98704.03
2022-10-21T01:25:47.262Z,98696.00
2022-10-21T01:29:04.504Z,98690.59
2022-10-21T01:31:55.211Z,98685.66
2022-10-21T01:34:34.290Z,98693.44
2022-10-21T01:37:19.463Z,98687.91
2022-10-21T01:39:58.901Z,98677.88
2022-10-21T01:42:38.131Z,98676.72
2022-10-21T01:45:11.878Z,98674.44
2022-10-21T01:47:44.283Z,98666.22
2022-10-21T01:50:17.802Z,98656.03
2022-10-21T01:52:48.802Z,98657.16
2022-10-21T01:55:19.199Z,98646.50
2022-10-21T01:57:50.599Z,98640.22
2022-10-21T02:00:18.460Z,98639.91
2022-10-21T02:02:48.325Z,98640.03
2022-10-21T02:05:23.592Z,98647.16
2022-10-21T02:07:50.578Z,98636.91
2022-10-21T02:10:18.853Z,98633.81
2022-10-21T02:12:48.835Z,98633.63
2022-10-21T02:15:16.666Z,98636.31
2022-10-21T02:17:55.523Z,98635.28
2022-10-21T02:20:26.564Z,98636.94
2022-10-21T02:22:56.288Z,98638.25
2022-10-21T02:25:26.688Z,98630.16
2022-10-21T02:27:56.339Z,98621.13
2022-10-21T02:30:23.310Z,98623.91
2022-10-21T02:33:34.441Z,98619.13
2022-10-21T02:37:07.045Z,98606.31
2022-10-21T02:39:42.565Z,98607.00
2022-10-21T02:42:12.259Z,98613.22
2022-10-21T02:44:41.762Z,98596.72
2022-10-21T02:47:08.957Z,98594.75
2022-10-21T02:49:35.832Z,98587.38
2022-10-21T02:52:03.348Z,98593.50
2022-10-21T02:54:33.444Z,98589.38
2022-10-21T02:57:00.783Z,98586.72
2022-10-21T02:59:27.818Z,98585.56
2022-10-21T03:01:54.801Z,98599.38
2022-10-21T03:04:21.951Z,98588.84
2022-10-21T03:06:48.838Z,98579.50
2022-10-21T03:09:16.452Z,98577.50
2022-10-21T03:11:43.612Z,98576.00
2022-10-21T03:14:11.209Z,98584.91
2022-10-21T03:16:38.345Z,98575.34
2022-10-21T03:19:05.333Z,98571.72
2022-10-21T03:21:35.519Z,98570.06
2022-10-21T03:24:05.647Z,98567.94
2022-10-21T03:26:35.219Z,98565.13
2022-10-21T03:29:02.618Z,98567.59
2022-10-21T03:31:29.871Z,98566.97
2022-10-21T03:34:00.033Z,98551.16
2022-10-21T03:36:27.315Z,98573.22
2022-10-21T03:38:57.252Z,98582.09
2022-10-21T03:41:24.547Z,98570.72
2022-10-21T03:43:52.336Z,98569.25
2022-10-21T03:46:19.413Z,98560.50
2022-10-21T03:48:48.891Z,98560.84
2022-10-21T03:51:16.336Z,98562.66
2022-10-21T03:53:44.022Z,98564.28
2022-10-21T03:56:11.895Z,98561.47
2022-10-21T03:58:39.895Z,98565.09
2022-10-21T04:01:06.866Z,98569.34
2022-10-21T04:03:34.071Z,98575.59
2022-10-21T04:06:01.135Z,98578.25
2022-10-21T04:08:28.097Z,98583.47
2022-10-21T04:10:58.464Z,98582.34
2022-10-21T04:13:25.380Z,98582.16
2022-10-21T04:16:01.318Z,98572.63
2022-10-21T04:18:29.147Z,98573.56
2022-10-21T04:20:56.443Z,98566.38
2022-10-21T04:23:23.469Z,98557.94
2022-10-21T04:25:50.275Z,98566.63
2022-10-21T04:28:17.367Z,98557.63
2022-10-21T04:30:44.445Z,98552.38
2022-10-21T04:33:12.005Z,98550.84
2022-10-21T04:35:42.018Z,98544.44
2022-10-21T04:38:09.104Z,98540.00
2022-10-21T04:40:36.136Z,98545.75
2022-10-21T04:43:04.184Z,98538.50
2022-10-21T04:45:31.296Z,98521.09
2022-10-21T04:47:58.432Z,98532.91
2022-10-21T04:50:25.588Z,98532.09
2022-10-21T04:52:52.806Z,98533.91
2022-10-21T04:58:39.330Z,98525.03
2022-10-21T05:01:10.420Z,98514.34
2022-10-21T05:03:38.991Z,98532.72
2022-10-21T05:06:09.589Z,98522.56
2022-10-21T05:08:36.875Z,98524.84
2022-10-21T05:11:04.788Z,98521.41
2022-10-21T05:13:32.237Z,98527.66
2022-10-21T05:16:03.648Z,98510.88
2022-10-21T05:18:31.984Z,98512.22
2022-10-21T05:21:00.040Z,98508.91
2022-10-21T05:23:28.635Z,98506.78
2022-10-21T05:25:56.246Z,98517.59
2022-10-21T05:28:24.169Z,98509.47
2022-10-21T05:30:53.665Z,98512.88
2022-10-21T05:33:25.262Z,98514.84
2022-10-21T05:36:02.396Z,98503.91
2022-10-21T05:38:30.713Z,98505.53
2022-10-21T05:40:58.527Z,98503.69
2022-10-21T05:43:28.918Z,98504.50
2022-10-21T05:45:55.829Z,98508.06
2022-10-21T05:48:23.046Z,98507.25
2022-10-21T05:50:55.115Z,98502.94
2022-10-21T05:53:24.122Z,98508.34
2022-10-21T05:56:07.287Z,98492.44
2022-10-21T05:58:38.680Z,98492.28
2022-10-21T06:01:07.621Z,98498.38
2022-10-21T06:03:36.988Z,98503.31
2022-10-21T06:06:09.141Z,98500.03
2022-10-21T06:08:39.483Z,98498.03
2022-10-21T06:11:20.458Z,98498.41
2022-10-21T06:14:01.174Z,98493.31
2022-10-21T06:16:28.464Z,98496.41
2022-10-21T06:19:08.302Z,98499.38
2022-10-21T06:21:36.175Z,98497.69
2022-10-21T06:24:03.244Z,98506.97
2022-10-21T06:26:36.075Z,98503.50
2022-10-21T06:29:03.998Z,98490.06
2022-10-21T06:31:31.046Z,98496.97
2022-10-21T06:34:01.310Z,98516.53
2022-10-21T06:36:30.030Z,98505.06
2022-10-21T06:38:57.129Z,98510.75
2022-10-21T06:41:31.337Z,98510.47
2022-10-21T06:43:58.661Z,98510.25
2022-10-21T06:46:26.065Z,98515.91
2022-10-21T06:48:53.581Z,98520.19
2022-10-21T06:51:22.958Z,98517.56
2022-10-21T06:53:56.150Z,98518.38
2022-10-21T06:56:24.240Z,98524.50
2022-10-21T06:58:54.511Z,98528.28
2022-10-21T07:01:59.105Z,98519.44
2022-10-21T07:04:26.871Z,98512.53
2022-10-21T07:06:54.845Z,98522.44
2022-10-21T07:09:22.045Z,98528.22
2022-10-21T07:11:54.826Z,98527.72
2022-10-21T07:14:24.725Z,98526.72
2022-10-21T07:16:54.220Z,98520.19
2022-10-21T07:19:21.383Z,98526.94
2022-10-21T07:21:48.910Z,98527.13
2022-10-21T07:24:18.745Z,98530.44
2022-10-21T07:26:48.684Z,98527.22
2022-10-21T07:29:15.827Z,98522.28
2022-10-21T07:31:45.939Z,98519.50
2022-10-21T07:34:13.395Z,98533.00
2022-10-21T07:36:48.120Z,98533.97
2022-10-21T07:39:20.004Z,98533.53
2022-10-21T07:41:52.556Z,98543.06
2022-10-21T07:44:21.555Z,98542.41
2022-10-21T07:46:49.646Z,98530.75
2022-10-21T07:49:17.979Z,98524.66
2022-10-21T07:51:46.063Z,98518.56
2022-10-21T07:54:15.248Z,98517.72
2022-10-21T07:56:46.190Z,98524.00
2022-10-21T07:59:14.227Z,98514.94
2022-10-21T08:01:45.145Z,98511.50
2022-10-21T08:04:18.527Z,98513.59
2022-10-21T08:06:49.278Z,98517.56
2022-10-21T08:09:17.195Z,98520.03
2022-10-21T08:11:44.813Z,98511.94
2022-10-21T08:14:13.872Z,98522.66
2022-10-21T08:16:41.070Z,98512.41
2022-10-21T08:19:09.209Z,98520.66
2022-10-21T08:21:37.540Z,98531.84
2022-10-21T08:24:06.044Z,98526.59
2022-10-21T08:26:32.993Z,98523.63
2022-10-21T08:29:00.357Z,98527.22
2022-10-21T08:31:27.496Z,98531.03
2022-10-21T08:33:56.817Z,98516.69
2022-10-21T08:36:25.471Z,98528.22
2022-10-21T08:38:53.361Z,98530.03
2022-10-21T08:42:10.048Z,98523.47
2022-10-21T08:44:41.800Z,98511.13
2022-10-21T08:47:23.144Z,98510.09
2022-10-21T08:50:06.938Z,98519.16
2022-10-21T08:52:43.187Z,98524.75
2022-10-21T08:55:39.010Z,98528.22
2022-10-21T08:58:12.601Z,98526.53
2022-10-21T09:00:53.122Z,98530.47
2022-10-21T09:03:45.047Z,98532.59
2022-10-21T09:06:22.141Z,98525.53
2022-10-21T09:09:02.161Z,98528.47
2022-10-21T09:11:50.127Z,98527.78
2022-10-21T09:14:57.739Z,98530.91
2022-10-21T09:17:44.342Z,98524.78
2022-10-21T09:21:04.691Z,98534.19
2022-10-21T09:24:03.180Z,98548.84
2022-10-21T09:26:37.539Z,98546.88
2022-10-21T09:29:33.487Z,98539.59
2022-10-21T09:32:17.554Z,98554.78
2022-10-21T09:35:07.531Z,98548.63
2022-10-21T09:37:45.014Z,98542.88
2022-10-21T09:40:24.330Z,98550.78
2022-10-21T09:42:56.266Z,98547.13
2022-10-21T09:45:46.673Z,98553.25
2022-10-21T09:49:06.923Z,98556.34
2022-10-21T09:51:35.826Z,98543.97
2022-10-21T09:54:10.926Z,98542.47
2022-10-21T09:56:50.246Z,98540.84
2022-10-21T09:59:19.723Z,98527.94
2022-10-21T10:01:46.973Z,98519.34
2022-10-21T10:04:31.834Z,98519.84
2022-10-21T10:07:18.301Z,98527.88
2022-10-21T10:09:46.505Z,98531.34
2022-10-21T10:12:20.472Z,98530.53
2022-10-21T10:14:47.728Z,98520.25
2022-10-21T10:17:30.250Z,98513.50
2022-10-21T10:20:16.131Z,98514.69
2022-10-21T10:22:48.543Z,98506.13
2022-10-21T10:25:26.001Z,98504.28
2022-10-21T10:27:54.919Z,98504.09
2022-10-21T10:30:23.288Z,98490.91
2022-10-21T10:32:51.863Z,98483.00
2022-10-21T10:35:36.571Z,98498.81
2022-10-21T10:38:04.514Z,98484.66
2022-10-21T10:40:42.268Z,98485.63
2022-10-21T10:43:16.341Z,98492.78
2022-10-21T10:45:53.563Z,98496.56
2022-10-21T10:48:27.175Z,98491.94
2022-10-21T10:50:54.309Z,98495.56
2022-10-21T10:53:44.198Z,98492.63
2022-10-21T10:56:51.190Z,98483.19
2022-10-21T10:59:24.502Z,98480.75
2022-10-21T11:02:38.899Z,98488.28
2022-10-21T11:05:30.561Z,98487.66
2022-10-21T11:08:06.223Z,98489.47
2022-10-21T11:10:48.596Z,98499.44
2022-10-21T11:13:22.992Z,98498.63
2022-10-21T11:16:12.432Z,98495.94
2022-10-21T11:19:19.359Z,98494.91
2022-10-21T11:21:53.546Z,98492.75
2022-10-21T11:24:39.081Z,98501.97
2022-10-21T11:27:19.134Z,98496.97
2022-10-21T11:30:04.096Z,98495.00
2022-10-21T11:32:41.507Z,98500.28
2022-10-21T11:35:44.047Z,98504.19
2022-10-21T11:38:41.467Z,98490.66
2022-10-21T11:41:28.496Z,98493.84
2022-10-21T11:43:58.354Z,98492.16
2022-10-21T11:47:11.614Z,98485.91
2022-10-21T11:49:49.406Z,98489.34
2022-10-21T11:52:42.028Z,98491.09
2022-10-21T11:55:18.143Z,98484.47
2022-10-21T11:58:03.105Z,98474.47
2022-10-21T12:00:35.846Z,98475.75
2022-10-21T12:03:23.962Z,98474.09
2022-10-21T12:06:02.446Z,98473.22
2022-10-21T12:08:54.547Z,98469.41
2022-10-21T12:11:28.340Z,98461.44
2022-10-21T12:13:58.816Z,98461.78
2022-10-21T12:16:41.522Z,98461.06
2022-10-21T12:19:11.293Z,98459.13
2022-10-21T12:21:40.256Z,98461.06
2022-10-21T12:24:22.774Z,98455.09
2022-10-21T12:27:10.720Z,98457.88
2022-10-21T12:29:44.340Z,98459.34
2022-10-21T12:32:37.910Z,98451.53
2022-10-21T12:35:05.660Z,98456.19
2022-10-21T12:37:42.057Z,98462.28
2022-10-21T12:40:13.380Z,98449.22
2022-10-21T12:42:46.012Z,98461.72
2022-10-21T12:45:30.064Z,98458.75
2022-10-21T12:47:57.634Z,98448.81
2022-10-21T12:50:30.381Z,98450.28
2022-10-21T12:53:29.648Z,98448.41
2022-10-21T12:55:59.257Z,98440.94
2022-10-21T12:58:52.223Z,98444.03
2022-10-21T13:01:45.445Z,98440.84
2022-10-21T13:04:49.372Z,98437.47
2022-10-21T13:07:36.767Z,98428.28
2022-10-21T13:10:12.377Z,98432.47
2022-10-21T13:12:40.650Z,98430.09
2022-10-21T13:15:45.574Z,98428.63
2022-10-21T13:18:12.565Z,98427.91
2022-10-21T13:20:46.377Z,98432.38
2022-10-21T13:23:31.945Z,98449.94
2022-10-21T13:26:28.695Z,98464.84
2022-10-21T13:28:58.509Z,98466.09
2022-10-21T13:31:25.473Z,98468.84
2022-10-21T13:33:54.131Z,98463.00
2022-10-21T13:39:07.783Z,98455.00
2022-10-21T13:41:35.154Z,98452.19
2022-10-21T13:44:05.169Z,98466.75
2022-10-21T13:46:43.610Z,98461.00
2022-10-21T13:49:29.810Z,98467.81
2022-10-21T13:51:57.047Z,98463.88
2022-10-21T13:54:23.905Z,98473.38
2022-10-21T13:56:51.041Z,98478.56
2022-10-21T13:59:30.113Z,98478.50
2022-10-21T14:01:58.164Z,98462.66
2022-10-21T14:04:32.951Z,98481.44
2022-10-21T14:07:06.217Z,98475.50
2022-10-21T14:09:40.942Z,98470.31
2022-10-21T14:12:30.398Z,98475.25
2022-10-21T14:14:58.757Z,98470.41
2022-10-21T14:17:27.597Z,98474.41
2022-10-21T14:19:56.512Z,98473.94
2022-10-21T14:22:25.162Z,98474.03
2022-10-21T14:24:54.910Z,98481.50
2022-10-21T14:27:27.853Z,98478.22
2022-10-21T14:29:56.025Z,98479.53
2022-10-21T14:32:25.045Z,98474.56
2022-10-21T14:34:58.496Z,98486.44
2022-10-21T14:37:25.938Z,98483.16
2022-10-21T14:39:52.907Z,98474.22
2022-10-21T14:42:27.626Z,98479.63
2022-10-21T14:45:00.761Z,98473.03
2022-10-21T14:47:27.708Z,98482.72
2022-10-21T14:49:59.946Z,98483.06
2022-10-21T14:52:36.873Z,98479.53
2022-10-21T14:55:14.185Z,98486.16
2022-10-21T14:57:47.735Z,98492.34
2022-10-21T15:00:30.090Z,98487.34
2022-10-21T15:03:00.779Z,98484.53
2022-10-21T15:05:30.838Z,98483.72
2022-10-21T15:08:25.641Z,98483.34
2022-10-21T15:11:05.584Z,98489.47
2022-10-21T15:13:33.439Z,98494.75
2022-10-21T15:16:01.774Z,98488.28
2022-10-21T15:18:34.313Z,98483.78
2022-10-21T15:21:10.664Z,98480.63
2022-10-21T15:23:49.807Z,98482.25
2022-10-21T15:26:40.692Z,98478.59
2022-10-21T15:29:22.730Z,98475.25
2022-10-21T15:31:50.673Z,98474.78
2022-10-21T15:34:18.559Z,98475.25
2022-10-21T15:36:47.265Z,98477.31
2022-10-21T15:39:14.326Z,98470.78
2022-10-21T15:41:44.623Z,98471.22
2022-10-21T15:44:31.674Z,98487.09
2022-10-21T15:47:06.162Z,98487.38
2022-10-21T15:49:43.480Z,98488.28
2022-10-21T15:52:12.688Z,98487.84
2022-10-21T15:54:43.868Z,98484.34
2022-10-21T15:57:25.721Z,98473.16
2022-10-21T15:59:53.577Z,98467.94
2022-10-21T16:02:23.381Z,98462.66
2022-10-21T16:04:53.356Z,98455.91
2022-10-21T16:07:34.902Z,98467.75
2022-10-21T16:10:02.025Z,98474.69
2022-10-21T16:12:30.776Z,98475.69
2022-10-21T16:14:57.810Z,98472.75
2022-10-21T16:17:28.681Z,98475.28
2022-10-21T16:19:55.968Z,98471.25
2022-10-21T16:22:23.214Z,98471.25
2022-10-21T16:24:50.462Z,98491.72
2022-10-21T16:27:31.258Z,98483.84
2022-10-21T16:30:33.725Z,98475.00
2022-10-21T16:33:00.740Z,98478.72
2022-10-21T16:35:27.553Z,98475.34
2022-10-21T16:37:55.912Z,98480.91
2022-10-21T16:40:32.172Z,98482.53
2022-10-21T16:42:59.131Z,98485.47
2022-10-21T16:45:29.866Z,98486.47
2022-10-21T16:47:59.238Z,98481.38
2022-10-21T16:50:40.326Z,98486.19
2022-10-21T16:53:11.077Z,98491.13
2022-10-21T16:55:38.297Z,98478.25
2022-10-21T16:58:05.548Z,98486.56
2022-10-21T17:00:32.863Z,98488.84
2022-10-21T17:03:00.183Z,98494.94
2022-10-21T17:05:28.055Z,98486.06
2022-10-21T17:07:55.499Z,98493.50
2022-10-21T17:10:22.710Z,98500.41
2022-10-21T17:12:50.884Z,98495.41
2022-10-21T17:15:17.898Z,98497.03
2022-10-21T17:17:47.809Z,98496.03
2022-10-21T17:20:15.362Z,98497.47
2022-10-21T17:22:47.489Z,98497.66
2022-10-21T17:25:15.104Z,98499.63
2022-10-21T17:27:42.248Z,98504.63
2022-10-21T17:30:14.072Z,98502.41
2022-10-21T17:35:14.613Z,98502.97
2022-10-21T17:37:42.236Z,98502.41
2022-10-21T17:40:13.316Z,98509.69
2022-10-21T17:42:40.495Z,98512.50
2022-10-21T17:45:09.351Z,98514.44
2022-10-21T17:47:37.473Z,98517.59
2022-10-21T17:50:05.792Z,98514.69
2022-10-21T17:52:49.321Z,98520.78
2022-10-21T17:55:28.610Z,98524.06
2022-10-21T17:58:28.542Z,98519.78
2022-10-21T18:01:09.458Z,98516.38
2022-10-21T18:03:46.500Z,98528.44
2022-10-21T18:06:17.629Z,98526.59
2022-10-21T18:08:47.788Z,98531.06
2022-10-21T18:11:32.264Z,98533.41
2022-10-21T18:14:16.106Z,98525.91
2022-10-21T18:16:55.195Z,98521.50
2022-10-21T18:19:53.625Z,98520.50
2022-10-21T18:22:37.945Z,98508.59
2022-10-21T18:25:30.681Z,98512.56
2022-10-21T18:28:15.457Z,98505.03
2022-10-21T18:30:49.483Z,98496.25
2022-10-21T18:33:25.175Z,98494.47
2022-10-21T18:35:59.042Z,98498.91
2022-10-21T18:38:32.661Z,98496.41
2022-10-21T18:44:07.220Z,98494.47
2022-10-21T18:46:47.833Z,98501.47
2022-10-21T18:49:24.043Z,98498.28
2022-10-21T18:52:05.389Z,98493.47
2022-10-21T18:55:02.771Z,98487.41
2022-10-21T18:57:35.698Z,98496.78
2022-10-21T19:00:10.904Z,98506.81
2022-10-21T19:02:54.128Z,98505.66
2022-10-21T19:05:37.496Z,98508.28
2022-10-21T19:08:15.056Z,98517.81
2022-10-21T19:10:49.867Z,98518.16
2022-10-21T19:13:31.677Z,98515.84
2022-10-21T19:16:13.954Z,98516.50
2022-10-21T19:18:54.472Z,98513.69
2022-10-21T19:21:35.263Z,98516.03
2022-10-21T19:24:10.775Z,98517.81
2022-10-21T19:26:53.972Z,98514.63
2022-10-21T19:29:29.321Z,98506.59
2022-10-21T19:32:04.581Z,98515.09
2022-10-21T19:34:44.578Z,98515.75
2022-10-21T19:37:20.978Z,98511.81
2022-10-21T19:39:55.967Z,98518.09
2022-10-21T19:42:31.111Z,98512.13
2022-10-21T19:45:19.011Z,98510.97
2022-10-21T19:47:51.055Z,98503.06
2022-10-21T19:50:36.121Z,98502.13
2022-10-21T19:53:06.769Z,98506.63
2022-10-21T19:55:39.245Z,98520.00
2022-10-21T19:58:15.238Z,98521.53
2022-10-21T20:00:50.019Z,98523.19
2022-10-21T20:03:33.641Z,98516.97
2022-10-21T20:06:18.438Z,98529.53
2022-10-21T20:08:53.915Z,98531.47
2022-10-21T20:11:25.429Z,98550.44
2022-10-21T20:14:08.744Z,98549.25
2022-10-21T20:16:43.774Z,98555.19
2022-10-21T20:19:17.183Z,98547.78
2022-10-21T20:22:04.223Z,98553.72
2022-10-21T20:24:46.227Z,98555.72
2022-10-21T20:27:26.176Z,98548.25
2022-10-21T20:29:57.195Z,98549.59
2022-10-21T20:32:32.221Z,98553.53
2022-10-21T20:35:07.028Z,98551.19
2022-10-21T20:37:44.129Z,98571.31
2022-10-21T20:40:37.842Z,98568.06
2022-10-21T20:43:22.758Z,98568.84
2022-10-21T20:45:56.195Z,98575.78
2022-10-21T20:48:30.432Z,98579.88
2022-10-21T20:51:51.598Z,98586.34
2022-10-21T20:54:29.466Z,98588.69
2022-10-21T20:57:12.494Z,98579.59
2022-10-21T20:59:50.807Z,98562.97
2022-10-21T21:02:35.995Z,98557.34
2022-10-21T21:05:24.098Z,98565.56
2022-10-21T21:08:03.791Z,98553.16
2022-10-21T21:10:39.633Z,98558.13
2022-10-21T21:13:15.797Z,98557.66
2022-10-21T21:15:52.577Z,98558.41
2022-10-21T21:18:23.160Z,98548.53
2022-10-21T21:23:42.035Z,98549.28
2022-10-21T21:26:17.663Z,98544.56
2022-10-21T21:31:33.337Z,98553.41
2022-10-21T21:34:00.959Z,98558.06
2022-10-21T21:36:39.449Z,98560.03
2022-10-21T21:39:31.869Z,98554.75
2022-10-21T21:42:08.984Z,98552.66
2022-10-21T21:44:44.477Z,98553.75
2022-10-21T21:47:25.171Z,98552.78
2022-10-21T21:50:18.152Z,98548.28
2022-10-21T21:52:51.555Z,98550.59
2022-10-21T21:55:21.586Z,98562.84
2022-10-21T21:57:54.505Z,98564.38
2022-10-21T22:00:32.706Z,98568.84
2022-10-21T22:03:33.409Z,98559.88
2022-10-21T22:06:14.863Z,98561.25
2022-10-21T22:08:46.712Z,98569.56
2022-10-21T22:11:24.136Z,98574.47
2022-10-21T22:14:04.045Z,98564.56
2022-10-21T22:19:28.542Z,98547.53
2022-10-21T22:21:58.934Z,98544.03
2022-10-21T22:24:26.213Z,98555.53
2022-10-21T22:26:53.177Z,98536.69
2022-10-21T22:29:20.037Z,98520.84
2022-10-21T22:31:47.073Z,98524.50
2022-10-21T22:34:14.215Z,98511.84
2022-10-21T22:36:41.350Z,98513.94
2022-10-21T22:39:08.535Z,98535.91
2022-10-21T22:41:35.383Z,98535.47
2022-10-21T22:44:02.715Z,98535.81
2022-10-21T22:46:34.363Z,98535.81
2022-10-21T22:49:03.298Z,98526.19
2022-10-21T22:51:30.207Z,98520.72
2022-10-21T22:53:57.348Z,98518.91
2022-10-21T22:56:25.487Z,98529.47
2022-10-21T22:58:52.506Z,98546.06
2022-10-21T23:01:20.096Z,98548.97
2022-10-21T23:03:49.774Z,98550.25
2022-10-21T23:06:16.593Z,98550.72
2022-10-21T23:08:43.569Z,98549.44
2022-10-21T23:11:10.855Z,98550.53
2022-10-21T23:13:38.026Z,98548.25
2022-10-21T23:16:05.791Z,98558.94
2022-10-21T23:18:32.646Z,98549.72
2022-10-21T23:20:59.552Z,98552.38
2022-10-21T23:23:26.546Z,98547.72
2022-10-21T23:25:53.392Z,98550.72
2022-10-21T23:28:20.237Z,98552.72
2022-10-21T23:30:48.409Z,98557.47
2022-10-21T23:33:15.523Z,98558.84
2022-10-21T23:35:42.604Z,98564.41
2022-10-21T23:38:12.084Z,98568.41
2022-10-21T23:40:39.137Z,98566.09
2022-10-21T23:43:06.269Z,98556.81
2022-10-21T23:45:33.465Z,98552.47
2022-10-21T23:48:00.377Z,98528.47
2022-10-21T23:50:27.565Z,98530.38
2022-10-21T23:52:54.727Z,98531.31
2022-10-21T23:55:21.809Z,98533.69
2022-10-21T23:57:48.789Z,98536.22
